Snake Valley, Nevada Weather observations

Data are for 10 minute period ending at time listed.
 Day   Time   Solar   Ave.   Ave.  Ave.  Vector  Max.   Baro.   Total    
  of    of     Rad.   Air    Rel.  Wind   Wind   Wind  Press.  Precip.   
Year   Day            Temp.  Hum.  Speed  Dir.   Gust                    
2015   (PST)  Kw/m2    F      %     mph   deg.    mph    mb.     in.     
-------------------------------------------------------------------------
 247    0:00   0.00   65.2    28    4.0   189     8.6   836.9    0.00 
 247    0:10   0.00   63.5    30    3.5   189     7.6   836.9    0.00 
 247    0:20   0.00   64.8    28    4.2   180     6.9   836.9    0.00 
 247    0:30   0.00   62.8    32    2.9   116     4.5   836.9    0.00 
 247    0:40   0.00   58.8    40    3.0   101     4.4   836.9    0.00 
 247    0:50   0.00   59.5    36    3.1   110     5.4   836.9    0.00 
 247    1:00   0.00   60.0    36    3.3   137     5.9   836.9    0.00 
 247    1:10   0.00   60.5    35    4.8   136     8.8   836.9    0.00 
 247    1:20   0.00   61.7    33    4.9   140     8.8   836.8    0.00 
 247    1:30   0.00   61.3    34    5.4   130     9.5   836.7    0.00 
 247    1:40   0.00   61.5    34    5.8   134     9.7   836.7    0.00 
 247    1:50   0.00   62.0    33    6.5   133     9.9   836.7    0.00 
 247    2:00   0.00   62.4    33    6.5   139     9.6   836.6    0.00 
 247    2:10   0.00   62.6    32    6.1   143     9.9   836.6    0.00 
 247    2:20   0.00   62.9    32    7.5   147    11.2   836.6    0.00 
 247    2:30   0.00   63.4    31    8.4   150    15.6   836.6    0.00 
 247    2:40   100.00  99999.0   99999  99999.0   99999   99999.0   99999.0   99999.00 
 247    2:50   0.00   62.8    32    6.7   142    11.0   836.5    0.00 
 247    3:00   0.00   62.9    32    7.7   147    13.4   836.6    0.00 
 247    3:10   0.00   63.3    31    6.4   148    11.8   836.6    0.00 
 247    3:20   0.00   62.9    32    6.8   148    10.9   836.5    0.00 
 247    3:30   0.00   63.7    31    9.2   155    14.9   836.5    0.00 
 247    3:40   0.00   64.3    31    9.5   158    17.3   836.6    0.00 
 247    3:50   0.00   64.2    31    9.5   156    15.3   836.5    0.00 
 247    4:00   0.00   63.8    32    8.4   151    13.1   836.6    0.00 
 247    4:10   0.00   63.1    33    8.1   148    13.4   836.6    0.00 
 247    4:20   0.00   63.0    33    7.2   148    12.3   836.6    0.00 
 247    4:30   0.00   62.5    34    7.5   144    12.7   836.7    0.00 
 247    4:40   0.00   61.9    36    7.4   142    11.1   836.8    0.00 
 247    4:50   0.00   62.2    35    8.3   145    12.9   836.8    0.00 
 247    5:00   0.00   62.6    34    8.2   150    12.5   836.9    0.00 
 247    5:10   0.01   62.4    34    7.4   150    12.1   837.0    0.00 
 247    5:20   0.02   62.0    35    7.0   137    11.1   837.1    0.00 
 247    5:30   0.03   61.7    36    7.0   133    11.4   837.2    0.00 
 247    5:40   0.06   61.3    37    7.4   119    11.5   837.2    0.00 
 247    5:50   0.08   60.9    38    8.0   117    11.4   837.3    0.00 
 247    6:00   0.10   61.6    37    8.0   116    14.0   837.3    0.00 
 247    6:10   0.13   62.5    36    8.7   118    12.4   837.5    0.00 
 247    6:20   0.16   64.1    33    8.6   120    14.0   837.5    0.00 
 247    6:30   0.17   64.6    34    6.7   122    13.4   837.4    0.00 
 247    6:40   0.19   65.3    32    7.3   142    14.7   837.3    0.00 
 247    6:50   0.22   66.9    30    9.0   156    15.7   837.3    0.00 
 247    7:00   0.27   67.6    29    9.4   161    14.9   837.1    0.00 
 247    7:10   0.32   69.0    27   11.7   162    19.6   837.1    0.00 
 247    7:20   0.36   69.4    28   11.3   155    18.4   837.0    0.00 
 247    7:30   0.39   70.1    27   12.7   162    21.3   836.9    0.00 
 247    7:40   0.42   70.5    28   12.3   162    21.9   836.8    0.00 
 247    7:50   0.46   71.3    26   15.0   169    26.8   836.7    0.00 
 247    8:00   0.49   71.6    26   13.8   176    25.2   836.7    0.00 
 247    8:10   0.53   72.1    26   12.1   164    21.0   836.6    0.00 
 247    8:20   0.56   72.5    25   13.4   161    22.4   836.7    0.00 
 247    8:30   0.59   73.1    25   12.9   173    21.5   836.7    0.00 
 247    8:40   0.62   73.5    25   11.9   179    19.1   836.8    0.00 
 247    8:50   0.64   73.8    25   11.9   180    19.4   836.8    0.00 
 247    9:00   0.67   74.2    24   13.8   185    23.0   836.8    0.00 
 247    9:10   0.69   74.3    24   14.2   196    24.2   836.8    0.00 
 247    9:20   0.72   74.5    24   14.3   185    24.8   836.9    0.00 
 247    9:30   0.75   74.9    24   12.6   200    18.1   836.9    0.00 
 247    9:40   0.76   75.3    25   12.7   177    19.4   836.7    0.00 
 247    9:50   0.79   75.3    25   13.6   204    23.6   836.7    0.00 
 247   10:00   0.81   75.5    24   12.1   198    20.1   836.6    0.00 
 247   10:10   0.82   76.3    25   11.9   188    20.4   836.6    0.00 
 247   10:20   0.85   76.3    25   15.2   189    23.9   836.5    0.00 
 247   10:30   0.86   76.2    25   15.2   186    27.7   836.4    0.00 
 247   10:40   0.89   76.6    25   14.2   210    24.5   836.3    0.00 
 247   10:50   0.89   76.3    24   14.9   206    25.8   836.2    0.00 
 247   11:00   0.89   77.4    22   16.0   200    29.2   836.1    0.00 
 247   11:10   0.90   77.5    22   15.4   192    25.9   836.0    0.00 
 247   11:20   0.91   77.6    22   18.7   196    30.6   835.8    0.00 
 247   11:30   0.91   77.8    21   18.6   201    34.2   835.8    0.00 
 247   11:40   0.91   78.2    21   17.0   193    30.7   835.6    0.00 
 247   11:50   0.91   78.3    22   14.6   205    25.0   835.5    0.00 
 247   12:00   0.91   78.4    21   17.4   196    26.2   835.5    0.00 
 247   12:10   0.91   78.7    20   17.6   202    34.0   835.3    0.00 
 247   12:20   0.91   78.7    18   19.3   197    32.4   835.3    0.00 
 247   12:30   0.90   78.9    18   20.7   204    33.2   835.2    0.00 
 247   12:40   0.89   79.1    18   20.2   201    32.1   835.1    0.00 
 247   12:50   0.88   79.0    20   17.3   206    27.1   835.0    0.00 
 247   13:00   0.87   79.7    19   17.9   201    29.1   834.9    0.00 
 247   13:10   0.85   79.7    19   17.7   194    29.9   834.8    0.00 
 247   13:20   0.85   80.3    19   16.5   202    26.8   834.8    0.00 
 247   13:30   0.83   79.8    20   19.0   204    29.1   834.6    0.00 
 247   13:40   0.82   79.8    19   17.4   200    28.4   834.5    0.00 
 247   13:50   0.75   79.4    20   18.4   218    33.2   834.4    0.00 
 247   14:00   0.79   79.7    19   18.5   208    27.8   834.3    0.00 
 247   14:10   0.80   79.9    19   18.2   202    28.4   834.3    0.00 
 247   14:20   0.78   79.8    20   16.5   213    25.7   834.3    0.00 
 247   14:30   0.71   80.0    21   16.5   186    25.5   834.2    0.00 
 247   14:40   0.66   79.7    17   20.3   202    29.7   834.2    0.00 
 247   14:50   0.63   79.8    18   18.1   196    28.1   834.2    0.00 
 247   15:00   0.61   79.3    19   18.8   209    30.1   834.2    0.00 
 247   15:10   0.55   79.2    18   20.8   202    35.1   834.1    0.00 
 247   15:20   0.59   79.4    19   16.0   211    22.8   834.0    0.00 
 247   15:30   0.40   79.2    21   15.2   194    27.6   834.1    0.00 
 247   15:40   0.49   78.8    24   16.0   191    23.8   834.1    0.00 
 247   15:50   0.33   78.3    23   16.9   191    27.2   834.1    0.00 
 247   16:00   0.28   77.6    25   11.3   187    18.9   834.1    0.00 
 247   16:10   0.20   76.9    26   14.7   177    24.5   833.9    0.00 
 247   16:20   0.12   76.0    26   15.0   183    24.3   833.9    0.00 
 247   16:30   0.21   76.2    26   12.6   183    18.9   833.8    0.00 
 247   16:40   0.25   76.7    26   13.3   188    21.2   833.8    0.00 
 247   16:50   0.12   76.2    26   15.4   187    25.1   833.8    0.00 
 247   17:00   0.14   76.2    25   16.0   184    25.8   833.8    0.00 
 247   17:10   0.06   75.1    26   18.7   183    28.8   833.9    0.00 
 247   17:20   0.05   74.4    27   17.7   189    26.5   834.1    0.00 
 247   17:30   0.05   74.1    29   15.4   189    24.8   834.1    0.00 
 247   17:40   0.03   73.6    30   16.4   189    25.4   834.1    0.00 
 247   17:50   0.02   73.0    30   13.2   192    22.4   834.1    0.00 
 247   18:00   0.02   72.3    31    9.3   195    15.8   834.2    0.00 
 247   18:10   0.01   72.3    32   11.3   196    21.1   834.2    0.00 
 247   18:20   0.00   72.1    32   13.1   197    21.8   834.2    0.00 
 247   18:30   0.00   70.7    38   12.7   195    22.8   834.2    0.00 
 247   18:40   0.00   68.7    44    8.1   192    12.5   834.2    0.00 
 247   18:50   0.00   67.7    47    6.9   184    11.3   834.3    0.00 
 247   19:00   0.00   68.6    43    6.8   183    15.1   834.5    0.00 
 247   19:10   0.00   70.1    38    9.7   194    19.7   834.6    0.00 
 247   19:20   0.00   70.7    38    8.5   181    14.7   834.8    0.00 
 247   19:30   0.00   69.9    39    5.8   186    11.5   834.9    0.00 
 247   19:40   0.00   69.9    39    6.7   181    14.2   835.0    0.00 
 247   19:50   0.00   69.9    40    5.3   187    11.5   835.2    0.00 
 247   20:00   0.00   68.1    48    5.3   204    15.9   835.4    0.01 
 247   20:10   0.00   66.9    52    5.9   170    12.0   835.5    0.00 
 247   20:20   0.00   64.1    57    8.6   160    17.8   835.7    0.00 
 247   20:30   0.00   65.6    53    7.6   187    17.2   835.8    0.00 
 247   20:40   0.00   63.8    59    6.2   153     9.9   835.9    0.00 

Return to Snake Valley graphs page.


Western Regional Climate Center,wrcc@dri.edu